Time;durP1;ratioP1;P1;durP2;ratioP2;P2;SDS_P1;SDS_P2;PMS_P1;PMS_P2;Temp;Humidity;BMP_temperature;BMP_pressure;BME280_temperature;BME280_humidity;BME280_pressure;Samples;Min_cycle;Max_cycle;Signal;HPM_P1;HPM_P2
2021/04/06 00:00:23;;;;;;;4.80;1.10;;;;;;;;;;4958582;28;20058;-58
2021/04/06 00:02:53;;;;;;;7.82;1.15;;;;;;;;;;4961762;28;20039;-58
2021/04/06 00:05:20;;;;;;;6.28;0.90;;;;;;;;;;4962239;28;20490;-59
2021/04/06 00:07:50;;;;;;;5.65;1.00;;;;;;;;;;4962718;28;20488;-58
2021/04/06 00:10:22;;;;;;;5.15;0.80;;;;;;;;;;4975088;28;20465;-57
2021/04/06 00:12:50;;;;;;;3.55;0.73;;;;;;;;;;4961603;28;20081;-59
2021/04/06 00:15:17;;;;;;;4.45;0.80;;;;;;;;;;4962486;28;20047;-58
2021/04/06 00:17:45;;;;;;;6.75;0.80;;;;;;;;;;4960260;28;20122;-56
2021/04/06 00:20:12;;;;;;;8.80;3.00;;;;;;;;;;4962086;28;20065;-57
2021/04/06 00:22:38;;;;;;;8.70;1.10;;;;;;;;;;4961687;28;20053;-58
2021/04/06 00:25:09;;;;;;;6.55;1.20;;;;;;;;;;4961818;28;20153;-58
2021/04/06 00:27:41;;;;;;;3.63;0.75;;;;;;;;;;4960792;28;20050;-57
2021/04/06 00:30:15;;;;;;;7.50;0.98;;;;;;;;;;4961502;28;20097;-57
2021/04/06 00:32:40;;;;;;;;;;;;;;;;;;4961324;28;20349;-58
2021/04/06 00:35:07;;;;;;;3.50;0.82;;;;;;;;;;4961656;28;19925;-57
2021/04/06 00:37:44;;;;;;;3.63;0.80;;;;;;;;;;4957774;28;20043;-58
2021/04/06 00:40:11;;;;;;;6.45;1.10;;;;;;;;;;4957760;28;20070;-57
2021/04/06 00:42:38;;;;;;;4.60;0.95;;;;;;;;;;4956605;28;20139;-60
2021/04/06 00:45:09;;;;;;;5.85;0.98;;;;;;;;;;4958698;28;20035;-59
2021/04/06 00:47:35;;;;;;;9.07;1.20;;;;;;;;;;4991274;28;20045;-57
2021/04/06 00:50:11;;;;;;;13.80;1.38;;;;;;;;;;4959760;28;20034;-58
2021/04/06 00:52:41;;;;;;;10.57;0.88;;;;;;;;;;4960705;28;20046;-59
2021/04/06 00:55:08;;;;;;;8.23;1.00;;;;;;;;;;4966183;28;20721;-58
2021/04/06 00:57:34;;;;;;;4.88;0.90;;;;;;;;;;4966505;28;20082;-57
2021/04/06 01:00:26;;;;;;;8.52;1.05;;;;;;;;;;4964719;28;20501;-57
2021/04/06 01:03:03;;;;;;;4.18;1.25;;;;;;;;;;4965389;28;20666;-58
2021/04/06 01:05:31;;;;;;;8.05;1.90;;;;;;;;;;4964131;28;20153;-58
2021/04/06 01:07:58;;;;;;;4.95;1.60;;;;;;;;;;4964547;28;20053;-58
2021/04/06 01:10:25;;;;;;;6.53;1.13;;;;;;;;;;4963150;28;20093;-58
2021/04/06 01:12:52;;;;;;;6.15;1.05;;;;;;;;;;4963895;28;20133;-57
2021/04/06 01:15:18;;;;;;;7.10;1.00;;;;;;;;;;4963813;28;20053;-57
2021/04/06 01:17:45;;;;;;;10.48;1.27;;;;;;;;;;4965206;28;20043;-58
2021/04/06 01:20:15;;;;;;;6.50;1.20;;;;;;;;;;4963307;28;20081;-57
2021/04/06 01:22:42;;;;;;;3.97;0.80;;;;;;;;;;4964547;28;20038;-58
2021/04/06 01:25:15;;;;;;;7.28;1.30;;;;;;;;;;4962999;28;20337;-59
2021/04/06 01:27:41;;;;;;;8.50;1.30;;;;;;;;;;4962913;28;20090;-57
2021/04/06 01:30:09;;;;;;;7.85;1.60;;;;;;;;;;4964725;28;20042;-58
2021/04/06 01:32:35;;;;;;;14.52;1.80;;;;;;;;;;4964162;28;20077;-58
2021/04/06 01:35:02;;;;;;;11.52;1.70;;;;;;;;;;4962907;28;20099;-57
2021/04/06 01:37:30;;;;;;;6.68;1.30;;;;;;;;;;4962261;28;20613;-57
2021/04/06 01:39:58;;;;;;;13.63;3.00;;;;;;;;;;4965060;28;20042;-57
2021/04/06 01:42:28;;;;;;;7.68;1.73;;;;;;;;;;4964891;28;20042;-57
2021/04/06 01:44:56;;;;;;;7.93;1.33;;;;;;;;;;4964397;28;20084;-56
2021/04/06 01:47:23;;;;;;;9.82;1.30;;;;;;;;;;4962948;28;20568;-58
2021/04/06 01:49:49;;;;;;;10.38;1.52;;;;;;;;;;4960630;28;20049;-54
2021/04/06 01:52:15;;;;;;;4.90;1.23;;;;;;;;;;4945197;28;20102;-59
2021/04/06 01:54:44;;;;;;;13.10;1.88;;;;;;;;;;4963368;28;20050;-58
2021/04/06 01:57:17;;;;;;;8.60;2.30;;;;;;;;;;4963759;28;20129;-57
2021/04/06 01:59:49;;;;;;;7.90;3.00;;;;;;;;;;4958999;28;20186;-57
2021/04/06 02:02:15;;;;;;;7.18;2.95;;;;;;;;;;4962904;28;20050;-57
2021/04/06 02:04:44;;;;;;;14.30;3.10;;;;;;;;;;4964748;28;20089;-55
2021/04/06 02:07:13;;;;;;;10.70;3.00;;;;;;;;;;4962411;28;20621;-57
2021/04/06 02:09:41;;;;;;;10.95;2.58;;;;;;;;;;4959277;28;20109;-57
2021/04/06 02:12:07;;;;;;;13.30;2.20;;;;;;;;;;4965740;28;20058;-55
2021/04/06 02:14:33;;;;;;;17.33;1.80;;;;;;;;;;4964842;28;20262;-58
2021/04/06 02:17:06;;;;;;;9.15;1.35;;;;;;;;;;4964774;28;20479;-59
2021/04/06 02:19:31;;;;;;;;;;;;;;;;;;4964248;28;20042;-59
2021/04/06 02:21:57;;;;;;;12.27;2.88;;;;;;;;;;4962014;28;19922;-57
2021/04/06 02:24:38;;;;;;;13.55;3.25;;;;;;;;;;4964336;28;20050;-62
2021/04/06 02:27:08;;;;;;;13.75;2.10;;;;;;;;;;4961883;28;20086;-57
2021/04/06 02:29:39;;;;;;;15.00;2.30;;;;;;;;;;4964499;28;20042;-60
2021/04/06 02:32:06;;;;;;;9.68;2.15;;;;;;;;;;4964554;28;20511;-57
2021/04/06 02:34:38;;;;;;;11.32;3.20;;;;;;;;;;4963606;28;20479;-60
2021/04/06 02:37:05;;;;;;;17.73;3.30;;;;;;;;;;4963924;28;20128;-60
2021/04/06 02:39:38;;;;;;;14.90;2.63;;;;;;;;;;4959273;28;20901;-56
2021/04/06 02:42:19;;;;;;;10.98;2.13;;;;;;;;;;4962318;28;20047;-60
2021/04/06 02:44:45;;;;;;;12.52;1.95;;;;;;;;;;4962656;28;20049;-57
2021/04/06 02:47:11;;;;;;;11.52;1.92;;;;;;;;;;4961450;28;20043;-58
2021/04/06 02:49:37;;;;;;;9.82;1.80;;;;;;;;;;4960563;28;20066;-57
2021/04/06 02:52:04;;;;;;;8.85;2.15;;;;;;;;;;4962708;28;20039;-57
2021/04/06 02:54:30;;;;;;;14.18;2.33;;;;;;;;;;4964176;28;20126;-59
2021/04/06 02:56:56;;;;;;;8.00;1.73;;;;;;;;;;4964706;28;20078;-59
2021/04/06 02:59:22;;;;;;;14.20;2.20;;;;;;;;;;4964959;28;20154;-58
2021/04/06 03:01:49;;;;;;;12.45;2.80;;;;;;;;;;4960495;28;20037;-60
2021/04/06 03:04:16;;;;;;;13.85;3.10;;;;;;;;;;4963986;28;20499;-59
2021/04/06 03:06:42;;;;;;;13.55;2.80;;;;;;;;;;4960788;28;20128;-59
2021/04/06 03:09:11;;;;;;;15.70;2.85;;;;;;;;;;4962898;28;20103;-58
2021/04/06 03:11:47;;;;;;;14.13;3.35;;;;;;;;;;4965162;28;20102;-57
2021/04/06 03:14:13;;;;;;;9.98;2.65;;;;;;;;;;4968141;28;20468;-60
2021/04/06 03:16:39;;;;;;;15.23;3.03;;;;;;;;;;4965784;28;20047;-59
2021/04/06 03:19:06;;;;;;;10.43;2.75;;;;;;;;;;4965504;28;20030;-58
2021/04/06 03:21:33;;;;;;;19.85;2.55;;;;;;;;;;4965042;28;20051;-59
2021/04/06 03:24:00;;;;;;;14.32;1.98;;;;;;;;;;4963332;28;20085;-59
2021/04/06 03:26:28;;;;;;;11.63;2.20;;;;;;;;;;4964353;28;20731;-57
2021/04/06 03:29:01;;;;;;;15.98;2.25;;;;;;;;;;4964604;28;20125;-58
2021/04/06 03:31:28;;;;;;;10.02;2.25;;;;;;;;;;4967517;28;20047;-58
2021/04/06 03:33:58;;;;;;;18.23;4.00;;;;;;;;;;4963444;28;20104;-56
2021/04/06 03:36:27;;;;;;;13.43;2.20;;;;;;;;;;4962372;28;20782;-58
2021/04/06 03:39:13;;;;;;;12.80;2.72;;;;;;;;;;4976772;28;20547;-59
2021/04/06 03:41:40;;;;;;;16.45;2.60;;;;;;;;;;4963102;28;20038;-58
2021/04/06 03:44:07;;;;;;;8.50;2.38;;;;;;;;;;4964136;28;20049;-55
2021/04/06 03:46:34;;;;;;;12.57;2.60;;;;;;;;;;4962910;28;20400;-59
2021/04/06 03:49:15;;;;;;;23.98;4.10;;;;;;;;;;4960551;28;20050;-58
2021/04/06 03:52:10;;;;;;;17.73;3.97;;;;;;;;;;4964403;28;20478;-58
2021/04/06 03:54:42;;;;;;;11.02;3.30;;;;;;;;;;4953558;28;20050;-58
2021/04/06 03:57:29;;;;;;;15.25;3.80;;;;;;;;;;4960244;28;20090;-58
2021/04/06 03:59:55;;;;;;;20.08;3.83;;;;;;;;;;4950217;28;20089;-58
2021/04/06 04:02:21;;;;;;;13.18;3.83;;;;;;;;;;4953459;28;20047;-58
2021/04/06 04:04:47;;;;;;;19.33;4.63;;;;;;;;;;4944361;28;20050;-57
2021/04/06 04:07:14;;;;;;;19.65;3.78;;;;;;;;;;4942508;28;20062;-58
2021/04/06 04:09:40;;;;;;;13.18;2.40;;;;;;;;;;4973159;28;20039;-57
2021/04/06 04:12:06;;;;;;;8.63;1.90;;;;;;;;;;4943860;28;20077;-58
2021/04/06 04:14:32;;;;;;;12.80;2.42;;;;;;;;;;4943271;28;20077;-58
2021/04/06 04:16:58;;;;;;;13.85;3.00;;;;;;;;;;4944505;28;20059;-57
2021/04/06 04:19:26;;;;;;;9.00;2.83;;;;;;;;;;4944136;28;21842;-58
2021/04/06 04:21:52;;;;;;;16.90;3.10;;;;;;;;;;4944995;28;20420;-58
2021/04/06 04:24:18;;;;;;;11.15;2.58;;;;;;;;;;4945733;28;20512;-58
2021/04/06 04:26:44;;;;;;;15.20;3.15;;;;;;;;;;4947377;28;20043;-58
2021/04/06 04:29:10;;;;;;;19.27;3.03;;;;;;;;;;4962905;28;20043;-58
2021/04/06 04:31:36;;;;;;;16.90;2.78;;;;;;;;;;4961134;28;20255;-55
2021/04/06 04:34:02;;;;;;;10.45;3.55;;;;;;;;;;4962182;28;20049;-58
2021/04/06 04:36:28;;;;;;;17.90;3.90;;;;;;;;;;4960450;28;22047;-58
2021/04/06 04:38:54;;;;;;;19.50;3.70;;;;;;;;;;4961527;28;20084;-57
2021/04/06 04:41:23;;;;;;;11.52;2.28;;;;;;;;;;4961975;28;20042;-58
2021/04/06 04:43:49;;;;;;;9.75;2.00;;;;;;;;;;4974243;28;20196;-58
2021/04/06 04:46:15;;;;;;;9.95;1.52;;;;;;;;;;4984633;28;20042;-58
2021/04/06 04:48:41;;;;;;;10.27;1.90;;;;;;;;;;4960739;28;20149;-58
2021/04/06 04:51:06;;;;;;;7.03;1.40;;;;;;;;;;4961743;28;20082;-56
2021/04/06 04:53:32;;;;;;;6.40;1.45;;;;;;;;;;4961054;28;20043;-57
2021/04/06 04:55:58;;;;;;;12.02;1.88;;;;;;;;;;4961513;28;20034;-57
2021/04/06 04:58:24;;;;;;;4.70;1.30;;;;;;;;;;4962703;28;20058;-58
2021/04/06 05:00:53;;;;;;;12.93;1.67;;;;;;;;;;4960275;28;20868;-56
2021/04/06 05:03:19;;;;;;;12.10;1.50;;;;;;;;;;4962447;28;20361;-57
2021/04/06 05:05:45;;;;;;;8.57;1.90;;;;;;;;;;4962742;28;20050;-56
2021/04/06 05:08:11;;;;;;;9.13;1.65;;;;;;;;;;4962265;28;20487;-58
2021/04/06 05:10:37;;;;;;;12.57;2.00;;;;;;;;;;4958781;28;20057;-57
2021/04/06 05:13:02;;;;;;;9.80;1.65;;;;;;;;;;4963154;28;20034;-57
2021/04/06 05:15:30;;;;;;;10.60;2.17;;;;;;;;;;4961930;28;20038;-55
2021/04/06 05:17:56;;;;;;;6.55;1.65;;;;;;;;;;4963138;28;20046;-57
2021/04/06 05:20:22;;;;;;;8.75;1.50;;;;;;;;;;4960705;28;20079;-57
2021/04/06 05:22:49;;;;;;;9.82;2.20;;;;;;;;;;4963763;28;20040;-57
2021/04/06 05:25:15;;;;;;;15.43;2.10;;;;;;;;;;4962283;28;20043;-57
2021/04/06 05:27:41;;;;;;;5.40;1.20;;;;;;;;;;4960049;28;20062;-57
2021/04/06 05:30:07;;;;;;;6.32;1.83;;;;;;;;;;4962693;28;20039;-57
2021/04/06 05:32:33;;;;;;;8.27;2.40;;;;;;;;;;4961437;28;20552;-57
2021/04/06 05:34:59;;;;;;;10.02;2.55;;;;;;;;;;4961520;28;20043;-57
2021/04/06 05:37:24;;;;;;;10.25;2.25;;;;;;;;;;4990439;28;20053;-57
2021/04/06 05:39:50;;;;;;;11.57;2.50;;;;;;;;;;4962626;28;20050;-56
2021/04/06 05:42:16;;;;;;;9.02;1.90;;;;;;;;;;4964376;28;20042;-57
2021/04/06 05:44:44;;;;;;;8.05;1.55;;;;;;;;;;4956389;28;20516;-57
2021/04/06 05:47:21;;;;;;;8.98;1.67;;;;;;;;;;4965642;28;20042;-58
2021/04/06 05:49:46;;;;;;;9.20;1.90;;;;;;;;;;4964821;28;20094;-58
2021/04/06 05:52:13;;;;;;;9.45;2.25;;;;;;;;;;4966276;28;20050;-57
2021/04/06 05:54:38;;;;;;;14.57;1.85;;;;;;;;;;4967231;28;20043;-58
2021/04/06 05:57:05;;;;;;;10.55;1.73;;;;;;;;;;4964613;28;20058;-58
2021/04/06 05:59:30;;;;;;;21.05;6.50;;;;;;;;;;4963605;28;20412;-58
2021/04/06 06:01:56;;;;;;;24.85;8.38;;;;;;;;;;4964473;28;20054;-58
2021/04/06 06:04:22;;;;;;;14.10;4.57;;;;;;;;;;4962387;28;20117;-58
2021/04/06 06:06:48;;;;;;;9.05;3.10;;;;;;;;;;4964028;28;20277;-58
2021/04/06 06:09:27;;;;;;;14.00;2.83;;;;;;;;;;4965600;28;20027;-57
2021/04/06 06:11:58;;;;;;;10.90;2.45;;;;;;;;;;4964091;28;20829;-58
2021/04/06 06:14:26;;;;;;;12.93;1.92;;;;;;;;;;4964529;28;20042;-57
2021/04/06 06:16:52;;;;;;;12.77;2.05;;;;;;;;;;4965068;28;20054;-56
2021/04/06 06:19:19;;;;;;;7.43;2.20;;;;;;;;;;4964933;28;20047;-56
2021/04/06 06:21:49;;;;;;;9.65;1.48;;;;;;;;;;4964133;28;20949;-57
2021/04/06 06:24:23;;;;;;;13.13;1.90;;;;;;;;;;4964867;28;20505;-57
2021/04/06 06:26:49;;;;;;;7.82;1.70;;;;;;;;;;4963059;28;20455;-56
2021/04/06 06:29:17;;;;;;;6.28;1.45;;;;;;;;;;4965617;28;20035;-55
2021/04/06 06:31:45;;;;;;;10.00;1.50;;;;;;;;;;4962549;28;20056;-59
2021/04/06 06:34:24;;;;;;;11.68;1.58;;;;;;;;;;4963588;28;20082;-57
2021/04/06 06:37:00;;;;;;;6.18;1.40;;;;;;;;;;4963029;28;20035;-57
2021/04/06 06:39:26;;;;;;;9.30;1.40;;;;;;;;;;4963742;28;20038;-56
2021/04/06 06:41:59;;;;;;;5.15;1.50;;;;;;;;;;4964510;28;20511;-58
2021/04/06 06:44:25;;;;;;;7.32;1.20;;;;;;;;;;4963517;28;20050;-57
2021/04/06 06:47:01;;;;;;;6.25;1.60;;;;;;;;;;4963881;28;20061;-58
2021/04/06 06:49:38;;;;;;;6.90;1.67;;;;;;;;;;4963010;28;20070;-58
2021/04/06 06:52:28;;;;;;;7.82;1.85;;;;;;;;;;4964458;28;20055;-56
2021/04/06 06:54:58;;;;;;;6.40;1.30;;;;;;;;;;4962040;28;20042;-55
2021/04/06 06:57:34;;;;;;;11.00;1.70;;;;;;;;;;4992696;28;20092;-55
2021/04/06 07:00:08;;;;;;;6.07;1.30;;;;;;;;;;4964590;28;20046;-57
2021/04/06 07:02:34;;;;;;;10.80;1.85;;;;;;;;;;4962966;28;20047;-56
2021/04/06 07:05:11;;;;;;;8.93;1.83;;;;;;;;;;4963746;28;20145;-57
2021/04/06 07:07:57;;;;;;;6.30;1.45;;;;;;;;;;4962245;28;20042;-57
2021/04/06 07:10:29;;;;;;;10.30;1.50;;;;;;;;;;4964202;28;20053;-57
2021/04/06 07:12:57;;;;;;;7.72;1.50;;;;;;;;;;4964296;28;20845;-55
2021/04/06 07:15:23;;;;;;;7.93;1.30;;;;;;;;;;4963912;28;20039;-56
2021/04/06 07:17:50;;;;;;;12.45;1.67;;;;;;;;;;4963932;28;20539;-57
2021/04/06 07:20:17;;;;;;;7.78;1.42;;;;;;;;;;4964798;28;20117;-55
2021/04/06 07:22:45;;;;;;;7.43;1.27;;;;;;;;;;4963801;28;20038;-54
2021/04/06 07:25:11;;;;;;;12.05;1.40;;;;;;;;;;4963894;28;20047;-55
2021/04/06 07:27:38;;;;;;;8.45;1.38;;;;;;;;;;4961050;28;20053;-58
2021/04/06 07:30:04;;;;;;;10.48;1.50;;;;;;;;;;4963033;28;20043;-56
2021/04/06 07:32:30;;;;;;;10.48;1.70;;;;;;;;;;4991195;28;20066;-57
2021/04/06 07:34:56;;;;;;;11.02;1.77;;;;;;;;;;4962803;28;20043;-56
2021/04/06 07:37:23;;;;;;;8.27;1.85;;;;;;;;;;4962463;28;20030;-58
2021/04/06 07:39:54;;;;;;;8.38;1.50;;;;;;;;;;4963538;28;20065;-56
2021/04/06 07:42:20;;;;;;;8.48;1.55;;;;;;;;;;4961996;28;20059;-56
2021/04/06 07:44:46;;;;;;;8.00;1.48;;;;;;;;;;4962625;28;20038;-58
2021/04/06 07:47:12;;;;;;;12.38;2.05;;;;;;;;;;4961443;28;20051;-57
2021/04/06 07:49:38;;;;;;;8.10;1.50;;;;;;;;;;4961272;28;20105;-58
2021/04/06 07:52:14;;;;;;;7.15;1.20;;;;;;;;;;4962346;28;20715;-55
2021/04/06 07:54:40;;;;;;;10.57;1.70;;;;;;;;;;4961080;28;20827;-55
2021/04/06 07:57:06;;;;;;;9.73;1.40;;;;;;;;;;4961702;28;20165;-57
2021/04/06 07:59:32;;;;;;;11.07;1.67;;;;;;;;;;4961730;28;20499;-58
2021/04/06 08:02:03;;;;;;;7.30;1.60;;;;;;;;;;4961951;28;20046;-58
2021/04/06 08:04:38;;;;;;;15.13;1.65;;;;;;;;;;4961878;28;20092;-57
2021/04/06 08:07:20;;;;;;;12.55;1.70;;;;;;;;;;4962378;28;20130;-57
2021/04/06 08:09:48;;;;;;;9.02;1.40;;;;;;;;;;4961545;28;20173;-57
2021/04/06 08:12:14;;;;;;;9.07;1.60;;;;;;;;;;4961963;28;20053;-57
2021/04/06 08:14:40;;;;;;;9.68;1.50;;;;;;;;;;4960385;28;20046;-57
2021/04/06 08:17:28;;;;;;;7.55;1.42;;;;;;;;;;4961399;28;20754;-58
2021/04/06 08:19:56;;;;;;;9.73;1.95;;;;;;;;;;4960207;28;20074;-56
2021/04/06 08:22:25;;;;;;;8.80;1.35;;;;;;;;;;4961455;28;20127;-56
2021/04/06 08:24:51;;;;;;;13.00;2.53;;;;;;;;;;4960314;28;20050;-57
2021/04/06 08:27:32;;;;;;;6.60;1.67;;;;;;;;;;4960469;28;20731;-56
2021/04/06 08:30:19;;;;;;;14.10;1.77;;;;;;;;;;4961730;28;20117;-57
2021/04/06 08:33:00;;;;;;;13.55;1.60;;;;;;;;;;4960555;28;20061;-57
2021/04/06 08:35:45;;;;;;;6.70;1.35;;;;;;;;;;4961426;28;20048;-54
2021/04/06 08:41:01;;;;;;;7.82;1.60;;;;;;;;;;4960142;28;20034;-56
2021/04/06 08:43:29;;;;;;;8.52;1.60;;;;;;;;;;4960695;28;20216;-56
2021/04/06 08:45:56;;;;;;;9.50;1.50;;;;;;;;;;4973827;28;20042;-56
2021/04/06 08:48:40;;;;;;;7.28;1.42;;;;;;;;;;4959581;28;20392;-54
2021/04/06 08:51:25;;;;;;;7.68;1.38;;;;;;;;;;4961029;28;20062;-57
2021/04/06 08:53:55;;;;;;;6.45;1.70;;;;;;;;;;4962465;28;20054;-56
2021/04/06 08:56:28;;;;;;;6.18;1.50;;;;;;;;;;4960223;28;20062;-55
2021/04/06 08:59:12;;;;;;;5.85;1.35;;;;;;;;;;4966777;28;20193;-57
2021/04/06 09:01:38;;;;;;;8.30;1.58;;;;;;;;;;4963119;28;20039;-56
2021/04/06 09:04:16;;;;;;;14.68;2.63;;;;;;;;;;4960979;28;20137;-56
2021/04/06 09:06:42;;;;;;;11.05;1.52;;;;;;;;;;4960755;28;20053;-55
2021/04/06 09:09:09;;;;;;;8.23;1.40;;;;;;;;;;4961370;28;20087;-57
2021/04/06 09:11:35;;;;;;;9.50;1.60;;;;;;;;;;4960586;28;20047;-55
2021/04/06 09:14:01;;;;;;;10.30;3.35;;;;;;;;;;4962449;28;20042;-57
2021/04/06 09:16:31;;;;;;;10.43;1.85;;;;;;;;;;4964646;28;20057;-57
2021/04/06 09:18:58;;;;;;;8.75;1.20;;;;;;;;;;4964756;28;20487;-56
2021/04/06 09:21:29;;;;;;;8.45;1.67;;;;;;;;;;4964716;28;20105;-57
2021/04/06 09:23:56;;;;;;;6.68;1.58;;;;;;;;;;4964909;28;20038;-56
2021/04/06 09:26:22;;;;;;;8.48;1.58;;;;;;;;;;4963525;28;21004;-56
2021/04/06 09:28:58;;;;;;;7.28;1.45;;;;;;;;;;4964559;28;20170;-56
2021/04/06 09:31:27;;;;;;;11.00;2.38;;;;;;;;;;4963423;28;20054;-55
2021/04/06 09:34:01;;;;;;;5.90;1.50;;;;;;;;;;4965448;28;20038;-57
2021/04/06 09:36:27;;;;;;;6.60;1.60;;;;;;;;;;4964397;28;20062;-54
2021/04/06 09:38:53;;;;;;;7.85;1.58;;;;;;;;;;4965691;28;20149;-53
2021/04/06 09:41:26;;;;;;;8.23;1.45;;;;;;;;;;4964201;28;20445;-56
2021/04/06 09:43:52;;;;;;;13.40;1.83;;;;;;;;;;4965083;28;20090;-56
2021/04/06 09:46:18;;;;;;;9.15;1.67;;;;;;;;;;4995383;28;20054;-54
2021/04/06 09:48:52;;;;;;;8.23;1.77;;;;;;;;;;4965681;28;20049;-55
2021/04/06 09:51:18;;;;;;;14.98;2.20;;;;;;;;;;4964098;28;20058;-54
2021/04/06 09:53:44;;;;;;;9.30;2.35;;;;;;;;;;4965898;28;20039;-58
2021/04/06 09:56:10;;;;;;;9.32;1.58;;;;;;;;;;4966879;28;20066;-56
2021/04/06 09:58:35;;;;;;;8.15;1.92;;;;;;;;;;4964860;28;20054;-56
2021/04/06 10:01:02;;;;;;;9.75;1.98;;;;;;;;;;4965865;28;20156;-57
2021/04/06 10:03:28;;;;;;;8.40;1.92;;;;;;;;;;4965578;28;20046;-58
2021/04/06 10:06:04;;;;;;;11.32;1.65;;;;;;;;;;4964225;28;20404;-56
2021/04/06 10:08:31;;;;;;;7.20;1.70;;;;;;;;;;4964350;28;20439;-57
2021/04/06 10:10:57;;;;;;;11.60;1.90;;;;;;;;;;4965073;28;20042;-56
2021/04/06 10:13:23;;;;;;;8.82;1.65;;;;;;;;;;4964573;28;20096;-55
2021/04/06 10:15:49;;;;;;;12.15;1.77;;;;;;;;;;4964632;28;20109;-57
2021/04/06 10:18:16;;;;;;;15.93;3.20;;;;;;;;;;4966165;28;20492;-57
2021/04/06 10:20:44;;;;;;;15.43;2.25;;;;;;;;;;4964779;28;20039;-57
2021/04/06 10:23:10;;;;;;;6.47;1.75;;;;;;;;;;4964839;28;20522;-57
2021/04/06 10:25:38;;;;;;;10.90;1.90;;;;;;;;;;4964494;28;20664;-57
2021/04/06 10:28:05;;;;;;;11.30;2.00;;;;;;;;;;4963257;28;20066;-57
2021/04/06 10:30:39;;;;;;;13.23;3.85;;;;;;;;;;4963741;28;20034;-57
2021/04/06 10:33:09;;;;;;;9.75;1.42;;;;;;;;;;4963782;28;20435;-54
2021/04/06 10:35:37;;;;;;;7.63;1.92;;;;;;;;;;4962058;28;20047;-57
2021/04/06 10:38:04;;;;;;;9.65;2.42;;;;;;;;;;4964668;28;20194;-57
2021/04/06 10:40:30;;;;;;;8.13;1.30;;;;;;;;;;4961340;28;20411;-57
2021/04/06 10:43:00;;;;;;;11.57;2.60;;;;;;;;;;4964245;28;20027;-57
2021/04/06 10:45:28;;;;;;;7.68;1.40;;;;;;;;;;4964776;28;20038;-57
2021/04/06 10:48:02;;;;;;;9.95;1.80;;;;;;;;;;4964999;28;20051;-57
2021/04/06 10:50:32;;;;;;;5.82;1.67;;;;;;;;;;4964729;28;20038;-57
2021/04/06 10:52:58;;;;;;;11.57;1.92;;;;;;;;;;4963177;28;20135;-55
2021/04/06 10:55:36;;;;;;;6.60;1.50;;;;;;;;;;4964436;28;20086;-57
2021/04/06 10:58:03;;;;;;;8.50;1.58;;;;;;;;;;4960917;28;20053;-56
2021/04/06 11:00:30;;;;;;;7.93;1.80;;;;;;;;;;4962053;28;20370;-57
2021/04/06 11:03:28;;;;;;;10.32;1.77;;;;;;;;;;4962803;28;20678;-55
2021/04/06 11:05:54;;;;;;;10.32;1.52;;;;;;;;;;4960969;28;20178;-56
2021/04/06 11:08:26;;;;;;;8.25;1.40;;;;;;;;;;4963112;28;20157;-56
2021/04/06 11:10:53;;;;;;;12.73;1.88;;;;;;;;;;4962861;28;20062;-57
2021/04/06 11:13:19;;;;;;;12.13;1.73;;;;;;;;;;4962260;28;20046;-57
2021/04/06 11:15:46;;;;;;;8.90;2.08;;;;;;;;;;4963612;28;20038;-56
2021/04/06 11:18:12;;;;;;;7.05;1.63;;;;;;;;;;4963444;28;20392;-57
2021/04/06 11:20:38;;;;;;;10.65;1.98;;;;;;;;;;4963636;28;20039;-56
2021/04/06 11:23:04;;;;;;;14.85;1.95;;;;;;;;;;4962488;28;20039;-57
2021/04/06 11:25:30;;;;;;;6.18;1.67;;;;;;;;;;4962756;28;20038;-56
2021/04/06 11:27:58;;;;;;;11.93;1.70;;;;;;;;;;4964219;28;20043;-56
2021/04/06 11:30:31;;;;;;;12.85;1.52;;;;;;;;;;4961816;28;20170;-57
2021/04/06 11:32:58;;;;;;;10.95;1.55;;;;;;;;;;4962333;28;20097;-57
2021/04/06 11:35:24;;;;;;;7.55;1.88;;;;;;;;;;4963211;28;20164;-55
2021/04/06 11:37:50;;;;;;;8.15;2.38;;;;;;;;;;4963081;28;20420;-57
2021/04/06 11:40:16;;;;;;;14.02;3.28;;;;;;;;;;4962815;28;20092;-58
2021/04/06 11:42:42;;;;;;;7.72;1.60;;;;;;;;;;4962119;28;20050;-57
2021/04/06 11:45:08;;;;;;;7.40;1.60;;;;;;;;;;4963925;28;20035;-56
2021/04/06 11:47:34;;;;;;;9.88;1.50;;;;;;;;;;4961987;28;20047;-56
2021/04/06 11:50:05;;;;;;;17.17;2.50;;;;;;;;;;4962758;28;20041;-57
2021/04/06 11:52:31;;;;;;;10.63;2.10;;;;;;;;;;4961385;28;20189;-58
2021/04/06 11:54:57;;;;;;;11.60;2.00;;;;;;;;;;4961799;28;20030;-56
2021/04/06 11:57:23;;;;;;;6.53;1.38;;;;;;;;;;4961937;28;20050;-56
2021/04/06 11:59:49;;;;;;;6.95;1.65;;;;;;;;;;4962767;28;20070;-56
2021/04/06 12:02:15;;;;;;;10.32;2.05;;;;;;;;;;4961664;28;20043;-55
2021/04/06 12:04:41;;;;;;;14.32;1.88;;;;;;;;;;4962723;28;20127;-53
2021/04/06 12:07:07;;;;;;;7.82;2.08;;;;;;;;;;4960423;28;20154;-56
2021/04/06 12:09:32;;;;;;;7.20;1.50;;;;;;;;;;4961555;28;20070;-57
2021/04/06 12:11:58;;;;;;;6.20;1.60;;;;;;;;;;4960386;28;20388;-56
2021/04/06 12:14:24;;;;;;;15.63;1.70;;;;;;;;;;4961799;28;20034;-56
2021/04/06 12:16:50;;;;;;;11.95;1.73;;;;;;;;;;4960921;28;20650;-56
2021/04/06 12:19:16;;;;;;;7.95;1.77;;;;;;;;;;4966651;28;20251;-58
2021/04/06 12:21:42;;;;;;;10.20;2.25;;;;;;;;;;4959952;28;20047;-57
2021/04/06 12:24:08;;;;;;;11.35;2.13;;;;;;;;;;4963077;28;20039;-57
2021/04/06 12:26:34;;;;;;;5.20;1.30;;;;;;;;;;4960290;28;20125;-57
2021/04/06 12:29:02;;;;;;;7.90;2.22;;;;;;;;;;4960717;28;20039;-54
2021/04/06 12:31:27;;;;;;;9.63;1.92;;;;;;;;;;4960275;28;20054;-56
2021/04/06 12:33:53;;;;;;;11.32;1.63;;;;;;;;;;4962431;28;20125;-55
2021/04/06 12:36:21;;;;;;;11.80;1.77;;;;;;;;;;4962700;28;20057;-57
2021/04/06 12:38:47;;;;;;;10.15;1.80;;;;;;;;;;4960162;28;20139;-54
2021/04/06 12:41:12;;;;;;;6.80;1.33;;;;;;;;;;4962760;28;20133;-56
2021/04/06 12:43:38;;;;;;;9.35;1.55;;;;;;;;;;4957966;28;20129;-56
2021/04/06 12:46:04;;;;;;;10.75;1.67;;;;;;;;;;4962381;28;20104;-57
2021/04/06 12:48:30;;;;;;;15.77;2.17;;;;;;;;;;4962255;28;20130;-56
2021/04/06 12:50:56;;;;;;;11.30;1.83;;;;;;;;;;4961527;28;20088;-56
2021/04/06 12:53:22;;;;;;;13.85;1.83;;;;;;;;;;4960406;28;20482;-56
2021/04/06 12:55:48;;;;;;;9.90;2.03;;;;;;;;;;4961956;28;20069;-56
2021/04/06 12:58:14;;;;;;;7.53;1.70;;;;;;;;;;4960714;28;20197;-55
2021/04/06 13:00:40;;;;;;;8.68;1.88;;;;;;;;;;4961261;28;20031;-53
2021/04/06 13:03:06;;;;;;;7.07;1.30;;;;;;;;;;4960718;28;20050;-55
2021/04/06 13:05:32;;;;;;;6.45;1.58;;;;;;;;;;4960893;28;21714;-56
2021/04/06 13:07:57;;;;;;;14.15;2.42;;;;;;;;;;4961333;28;20043;-56
2021/04/06 13:10:23;;;;;;;8.10;2.10;;;;;;;;;;4960779;28;20051;-56
2021/04/06 13:12:52;;;;;;;8.48;1.70;;;;;;;;;;4961175;28;21758;-54
2021/04/06 13:15:18;;;;;;;9.93;1.60;;;;;;;;;;4960747;28;20100;-55
2021/04/06 13:17:44;;;;;;;12.88;2.08;;;;;;;;;;4961965;28;20137;-55
2021/04/06 13:20:15;;;;;;;11.30;1.90;;;;;;;;;;4961763;28;20030;-52
2021/04/06 13:22:41;;;;;;;12.43;1.75;;;;;;;;;;4960336;28;20093;-54
2021/04/06 13:25:08;;;;;;;11.05;1.83;;;;;;;;;;4960821;28;20104;-52
2021/04/06 13:27:34;;;;;;;15.75;1.83;;;;;;;;;;4959449;28;20135;-53
2021/04/06 13:29:59;;;;;;;11.60;1.80;;;;;;;;;;4960485;28;20517;-53
2021/04/06 13:32:25;;;;;;;14.85;2.83;;;;;;;;;;4958344;28;20069;-53
2021/04/06 13:34:51;;;;;;;9.40;1.70;;;;;;;;;;4960042;28;20031;-56
2021/04/06 13:37:17;;;;;;;12.32;1.73;;;;;;;;;;4957926;28;20042;-57
2021/04/06 13:39:43;;;;;;;11.55;1.58;;;;;;;;;;4961055;28;20039;-53
2021/04/06 13:42:09;;;;;;;13.27;1.80;;;;;;;;;;4959738;28;20058;-52
2021/04/06 13:44:36;;;;;;;11.65;2.00;;;;;;;;;;4960477;28;20037;-54
2021/04/06 13:47:03;;;;;;;12.88;2.53;;;;;;;;;;4961044;28;20042;-56
2021/04/06 13:49:29;;;;;;;18.00;1.92;;;;;;;;;;4960774;28;20042;-53
2021/04/06 13:51:55;;;;;;;13.70;2.53;;;;;;;;;;4961141;28;20133;-55
2021/04/06 13:54:21;;;;;;;15.05;2.10;;;;;;;;;;4961134;28;20510;-55
2021/04/06 13:56:47;;;;;;;14.95;2.83;;;;;;;;;;4967203;28;20055;-54
2021/04/06 13:59:13;;;;;;;17.98;2.40;;;;;;;;;;4962678;28;20039;-56
2021/04/06 14:01:39;;;;;;;14.07;2.45;;;;;;;;;;4967241;28;20141;-53
2021/04/06 14:04:05;;;;;;;14.38;2.30;;;;;;;;;;4980521;28;20039;-56
2021/04/06 14:06:32;;;;;;;15.10;2.10;;;;;;;;;;4964571;28;20784;-57
2021/04/06 14:08:58;;;;;;;22.45;2.22;;;;;;;;;;4967858;28;20034;-55
2021/04/06 14:11:24;;;;;;;9.65;2.08;;;;;;;;;;4965512;28;20540;-56
2021/04/06 14:13:50;;;;;;;12.70;2.17;;;;;;;;;;4964966;28;20047;-54
2021/04/06 14:16:16;;;;;;;9.93;1.88;;;;;;;;;;4966196;28;20039;-56
2021/04/06 14:18:42;;;;;;;11.90;1.95;;;;;;;;;;4965025;28;20070;-54
2021/04/06 14:21:09;;;;;;;14.75;1.90;;;;;;;;;;4966072;28;20208;-54
2021/04/06 14:23:35;;;;;;;12.20;1.77;;;;;;;;;;4964403;28;20796;-56
2021/04/06 14:26:03;;;;;;;12.48;1.70;;;;;;;;;;4965057;28;20046;-56
2021/04/06 14:28:30;;;;;;;9.50;2.38;;;;;;;;;;4964877;28;20058;-54
2021/04/06 14:30:56;;;;;;;10.80;2.03;;;;;;;;;;4965004;28;20035;-54
2021/04/06 14:33:22;;;;;;;11.93;2.15;;;;;;;;;;4964340;28;20496;-55
2021/04/06 14:35:49;;;;;;;13.45;2.00;;;;;;;;;;4965323;28;20648;-56
2021/04/06 14:38:16;;;;;;;13.57;2.03;;;;;;;;;;4965702;28;20046;-56
2021/04/06 14:40:42;;;;;;;13.20;1.90;;;;;;;;;;4993795;28;20043;-57
2021/04/06 14:43:13;;;;;;;18.15;2.13;;;;;;;;;;4965304;28;20081;-55
2021/04/06 14:45:40;;;;;;;8.27;1.75;;;;;;;;;;4965031;28;20093;-56
2021/04/06 14:48:07;;;;;;;13.32;2.97;;;;;;;;;;4964154;28;20085;-56